TAF Text Data
IDs:
Format:
Raw Decoded Include METAR

Data at: 1132 UTC 22 Jan 2022

Region: TOP
KATL 220940Z 2210/2312 01005KT P6SM SCT008 BKN012 OVC025
  FM221200 04005KT P6SM BKN015
  FM221600 03004KT P6SM BKN025
  FM221800 33004KT P6SM SCT025
  FM230200 29004KT P6SM FEW250


KBOS 221120Z 2212/2318 35011G20KT 6SM -SHSN OVC030
  TEMPO 2212/2214 3SM -SHSN
  FM221400 36010G20KT P6SM VCSH SCT020 BKN040
  FM221800 01008KT P6SM BKN060
  FM230800 23009KT P6SM FEW080


KBWI 221120Z 2212/2318 36005KT P6SM FEW250
  FM222200 VRB03KT P6SM FEW200 SCT250
  FM231000 27003KT P6SM FEW140 FEW200
  FM231600 28008KT P6SM SCT090 BKN140


KCLE 221120Z 2212/2318 18007KT P6SM SCT250
  FM221500 20011G19KT P6SM BKN250
  FM221800 21016G23KT P6SM OVC060
  FM230000 23010KT P6SM OVC050
  FM231000 23007KT 5SM -SN OVC030


KCLT 221130Z 2212/2318 01006KT P6SM BKN045
  FM221400 01006KT P6SM FEW045
  FM222000 24003KT P6SM SKC
  FM231400 24005KT P6SM FEW250


KCVG 220903Z 2209/2312 19003KT P6SM FEW250
  FM221300 19006KT P6SM BKN250
  FM221700 22008KT P6SM FEW100 BKN200
  FM222000 24011KT P6SM SCT050 BKN100
  FM222200 23009KT P6SM FEW250
  FM230600 22006KT P6SM BKN080


KDCA 221120Z 2212/2318 35009KT P6SM FEW200
  FM221900 33004KT P6SM FEW200 FEW250
  FM222200 VRB03KT P6SM FEW200
  FM230600 21005KT P6SM FEW180
  FM231000 28003KT P6SM FEW200 FEW250
  FM231400 28004KT P6SM SCT110 BKN200


KDEN 221128Z 2212/2318 20009KT P6SM VCFG FEW120
  FM221400 23008KT P6SM FEW200
  FM222000 33007KT P6SM SKC
  FM230200 21007KT P6SM FEW220
  FM231600 VRB05KT P6SM SKC


KDFW 221120Z 2212/2318 09004KT P6SM SKC
  FM230300 21005KT P6SM FEW250


KDTW 221126Z 2212/2318 20010KT P6SM BKN150
  FM221500 21012G23KT P6SM OVC060
  FM221800 23016G24KT P6SM SCT025 OVC035
  FM230000 26012G20KT P6SM SCT025 OVC035
  FM230400 26010KT P6SM SCT025 OVC035
  FM231000 25007KT 5SM -SN BR OVC025
  FM231500 31007KT P6SM SCT025 OVC035


KEWR 221122Z 2212/2318 36010KT P6SM SCT250
  FM221500 36006KT P6SM FEW250
  FM222000 24004KT P6SM SCT250
  FM230300 22007KT P6SM BKN250
  FM230800 26008KT P6SM SCT150 BKN250


KFLL 220931Z 2210/2312 VRB05KT P6SM FEW005 SCT015 BKN025
  FM221600 34009KT P6SM VCSH SCT025 BKN050
  FM230300 31005KT P6SM SCT030 BKN060


KIAD 221120Z 2212/2318 35008KT P6SM FEW250
  FM221900 34006KT P6SM FEW200
  FM222200 VRB03KT P6SM SCT200
  FM230600 23003KT P6SM SCT250
  FM231500 27005KT P6SM SCT080 BKN200


KIAH 221120Z 2212/2318 02006KT P6SM SKC
  FM221500 03008KT P6SM SKC
  FM230100 VRB02KT P6SM SKC


KJFK 221122Z 2212/2318 01011KT P6SM SCT200
  FM221500 36008KT P6SM FEW250
  FM222100 24005KT P6SM SCT250
  FM230300 22008KT P6SM BKN250
  FM230800 26011KT P6SM SCT150 BKN250


KLAS 221122Z 2212/2318 35018G27KT P6SM SCT100
  FM221800 02014G23KT P6SM SCT100
  FM230100 02009KT P6SM FEW090
  FM230800 35006KT P6SM FEW100


KLAX 220837Z 2209/2312 01010KT P6SM SKC WS015/04040KT
  FM221200 01010G20KT P6SM SKC WS015/04040KT
  FM221700 01010KT P6SM SKC
  FM222000 26008KT P6SM SKC
  FM230300 VRB03KT P6SM SKC


KLGA 221122Z 2212/2318 02011KT P6SM SCT200
  FM221500 01008KT P6SM FEW250
  FM222100 25005KT P6SM SCT250
  FM230300 23008KT P6SM BKN250
  FM230800 26010KT P6SM SCT150 BKN250


KMCO 221127Z 2212/2318 36011KT P6SM OVC008
  FM221300 01013KT P6SM VCSH OVC006
  FM221600 01013KT 5SM -RADZ OVC004
  FM230100 35009KT P6SM OVC004
  FM231300 34007KT P6SM SCT008 BKN015 BKN030
  FM231500 34007KT P6SM SCT030


KMDW 221120Z 2212/2318 22015G26KT P6SM SCT035 OVC050
  TEMPO 2212/2213 4SM -SN BKN030
  FM221800 28014G23KT P6SM SCT030 BKN080
  FM230300 26009KT P6SM BKN050
  FM230500 31007KT 2SM -SN OVC025
  FM230700 01007KT 1SM -SN OVC015
  TEMPO 2307/2311 3/4SM -SN OVC009
  FM231300 34011G16KT P6SM -SN BKN025


KMEM 221120Z 2212/2318 02006KT P6SM SKC
  FM221800 29007KT P6SM FEW250
  FM230000 23003KT P6SM FEW250


KMIA 220932Z 2210/2312 VRB03KT P6SM BKN005 BKN120
  FM221100 VRB05KT P6SM FEW005 SCT015 BKN025
  FM221600 34008KT P6SM VCSH SCT025 BKN050
  FM230300 32006KT P6SM SCT030 BKN060


KMSP 220859Z 2209/2312 28012G22KT P6SM -SN SCT020 OVC035
  TEMPO 2209/2213 3SM -SN BKN020 OVC035
  FM221400 30009KT P6SM SCT035 BKN250
  FM222200 27008KT P6SM OVC060
  FM230000 30004KT 1 1/2SM -SN BR OVC014
  FM230400 35004KT P6SM BKN022
  FM230600 36007KT P6SM BKN090


KORD 221120Z 2212/2318 22015G26KT P6SM SCT035 OVC050
  TEMPO 2212/2213 4SM -SN BKN030
  FM221800 28014G23KT P6SM SCT030 BKN080
  FM230300 26009KT P6SM BKN050
  FM230500 31007KT 2SM -SN OVC025
  FM230700 01007KT 1SM -SN OVC015
  TEMPO 2307/2311 3/4SM -SN OVC009
  FM231300 34011G16KT P6SM -SN BKN025


KPDX 221130Z 2212/2312 30003KT 6SM BR MIFG OVC011
  FM221400 00000KT 5SM BR OVC009
  FM221700 VRB03KT 6SM BR MIFG BKN015
  FM221800 04004KT P6SM BKN025
  FM221900 29003KT P6SM SCT030
  FM230000 10008KT P6SM SKC
  FM230900 14005KT P6SM SKC


KPHL 221120Z 2212/2318 01007KT P6SM FEW200
  FM221900 VRB03KT P6SM FEW200
  FM230400 23004KT P6SM SCT200
  FM231300 26007KT P6SM SCT150


KPHX 220844Z 2209/2312 VRB04KT P6SM FEW080 SCT120 BKN180
  FM221000 11006KT P6SM SCT080 BKN120 BKN180
  FM221900 12011G20KT P6SM VCSH FEW060 SCT080 BKN100
  FM222300 07006KT P6SM VCSH FEW060 SCT080 BKN100
  FM230600 11011G22KT P6SM FEW070 BKN120


KPIT 221126Z 2212/2318 VRB03KT P6SM SKC
  FM221700 21008KT P6SM BKN250
  FM230100 22010KT P6SM BKN040
  FM231500 21008G18KT 3SM -SN OVC010


KSAN 220848Z 2209/2312 03004KT P6SM FEW015 SCT100 WS020/06020KT
  FM221500 VRB04KT P6SM FEW080
  FM222000 30008G15KT P6SM SCT080
  FM230200 VRB04KT P6SM SCT080


KSEA 220858Z 2209/2312 03008KT 1SM BR BKN001
  TEMPO 2209/2212 3SM BR
  FM221200 03003KT 1/2SM FG VV002
  FM221900 02004KT 5SM BR BKN009
  FM222200 01006KT P6SM SCT200
  FM230700 02003KT 1/2SM FG VV002


KSFO 220900Z 2209/2312 06016G28KT P6SM SCT200
  FM221800 07012KT P6SM SKC
  FM230400 05010KT P6SM SKC
  FM230800 03005KT P6SM SKC


KSLC 220903Z 2209/2312 28004KT P6SM SCT250
  FM221300 15005KT P6SM FEW250
  FM221700 36005KT P6SM FEW250


KSTL 221131Z 2212/2318 22007KT P6SM BKN050 BKN250
  FM221900 27009KT P6SM FEW060 FEW250
  FM230200 24005KT P6SM SCT250
  FM230800 24008KT P6SM BKN150 WS015/25045KT
  FM231200 25011G22KT P6SM SCT020 BKN040


KTPA 221016Z 2210/2312 02008KT P6SM FEW007 SCT020 OVC035
  TEMPO 2210/2212 BKN007 OVC020
  FM221200 04008KT P6SM VCSH BKN007 OVC015
  FM221700 02008KT 6SM -RA VCSH BKN007 OVC015
  FM230000 01008KT P6SM SCT008 BKN020 OVC060
  FM230800 01007KT P6SM FEW008 SCT020 BKN060